Time;durP1;ratioP1;P1;durP2;ratioP2;P2;SDS_P1;SDS_P2;PMS_P1;PMS_P2;Temp;Humidity;BMP_temperature;BMP_pressure;BME280_temperature;BME280_humidity;BME280_pressure;Samples;Min_cycle;Max_cycle;Signal;HPM_P1;HPM_P2
2023/08/18 00:00:02;;;;;;;3.80;2.80;;;;;;;24.65;85.27;99400.59;336788;28;4703;-83
2023/08/18 00:00:15;;;;;;;4.00;2.83;;;;;;;24.66;85.51;99402.25;334648;28;18634;-83
2023/08/18 00:00:28;;;;;;;4.05;2.65;;;;;;;24.65;85.38;99403.25;337732;28;4731;-83
2023/08/18 00:00:40;;;;;;;3.85;2.70;;;;;;;24.62;85.53;99398.22;335004;28;18436;-83
2023/08/18 00:00:52;;;;;;;3.97;2.85;;;;;;;24.63;85.53;99396.38;335151;28;5275;-82
2023/08/18 00:01:04;;;;;;;3.88;2.75;;;;;;;24.64;85.65;99404.22;337373;28;5284;-83
2023/08/18 00:01:17;;;;;;;3.83;2.80;;;;;;;24.64;85.31;99401.56;337384;28;4494;-83
2023/08/18 00:01:29;;;;;;;4.90;2.90;;;;;;;24.63;85.58;99402.56;334786;28;18575;-83
2023/08/18 00:01:41;;;;;;;4.63;2.83;;;;;;;24.64;85.33;99398.91;337538;28;4501;-83
2023/08/18 00:01:53;;;;;;;4.90;3.00;;;;;;;24.61;85.27;99399.22;333515;28;16300;-83
2023/08/18 00:02:05;;;;;;;3.55;2.80;;;;;;;24.60;85.48;99402.84;336075;28;4499;-82
2023/08/18 00:02:17;;;;;;;3.50;2.70;;;;;;;24.61;85.66;99401.88;336557;28;4642;-82
2023/08/18 00:02:29;;;;;;;3.08;2.60;;;;;;;24.61;85.82;99409.84;335001;28;18595;-82
2023/08/18 00:02:41;;;;;;;4.40;2.95;;;;;;;24.60;86.00;99404.66;337571;28;5349;-82
2023/08/18 00:02:53;;;;;;;5.10;3.00;;;;;;;24.59;85.84;99401.19;339010;28;4734;-82
2023/08/18 00:03:05;;;;;;;5.90;2.72;;;;;;;24.60;85.67;99402.00;335735;28;17491;-83
2023/08/18 00:03:17;;;;;;;4.63;2.53;;;;;;;24.61;85.62;99404.53;338860;28;4562;-83
2023/08/18 00:03:29;;;;;;;4.18;2.65;;;;;;;24.61;85.75;99407.19;336323;28;18321;-82
2023/08/18 00:03:41;;;;;;;4.63;2.97;;;;;;;24.61;85.70;99399.22;338875;28;4489;-82
2023/08/18 00:03:53;;;;;;;5.15;3.15;;;;;;;24.62;85.49;99400.03;338170;28;12523;-83
2023/08/18 00:04:06;;;;;;;4.43;3.08;;;;;;;24.59;85.53;99401.19;335233;28;17820;-83
2023/08/18 00:04:18;;;;;;;4.35;3.15;;;;;;;24.57;85.88;99403.16;333275;28;5292;-83
2023/08/18 00:04:30;;;;;;;4.63;3.30;;;;;;;24.56;85.82;99400.63;335829;28;18300;-83
2023/08/18 00:04:42;;;;;;;4.53;3.22;;;;;;;24.54;85.85;99398.09;338960;28;4984;-83
2023/08/18 00:04:54;;;;;;;4.10;2.92;;;;;;;24.53;85.95;99399.09;335846;28;19304;-83
2023/08/18 00:05:07;;;;;;;3.90;2.85;;;;;;;24.51;86.13;99398.41;338634;28;4500;-83
2023/08/18 00:05:19;;;;;;;4.40;3.22;;;;;;;24.51;86.16;99403.72;335799;28;16253;-82
2023/08/18 00:05:31;;;;;;;4.28;3.28;;;;;;;24.51;86.21;99403.72;339050;28;4648;-83
2023/08/18 00:05:43;;;;;;;3.90;3.13;;;;;;;24.49;86.29;99395.88;338976;28;5045;-83
2023/08/18 00:05:55;;;;;;;3.65;2.80;;;;;;;24.49;86.12;99395.03;334556;28;16328;-82
2023/08/18 00:06:07;;;;;;;3.53;2.70;;;;;;;24.51;86.08;99395.75;338331;28;4714;-83
2023/08/18 00:06:19;;;;;;;3.45;2.67;;;;;;;24.52;86.03;99400.06;339707;28;5329;-82
2023/08/18 00:06:31;;;;;;;3.60;2.60;;;;;;;24.56;86.02;99395.31;337364;28;18318;-82
2023/08/18 00:06:43;;;;;;;3.60;2.50;;;;;;;24.55;86.15;99397.13;339344;28;5430;-82
2023/08/18 00:06:55;;;;;;;4.40;2.80;;;;;;;24.54;86.00;99398.09;336498;28;10615;-82
2023/08/18 00:07:08;;;;;;;5.30;3.10;;;;;;;24.52;85.87;99394.75;338916;28;5558;-82
2023/08/18 00:07:20;;;;;;;4.95;3.15;;;;;;;24.52;86.13;99400.06;338106;28;5175;-83
2023/08/18 00:07:32;;;;;;;4.00;2.90;;;;;;;24.51;85.94;99396.59;336508;28;17643;-82
2023/08/18 00:07:44;;;;;;;4.32;2.88;;;;;;;24.54;86.01;99399.94;339307;28;5173;-82
2023/08/18 00:07:56;;;;;;;4.22;2.90;;;;;;;24.53;85.96;99399.09;336209;28;17958;-82
2023/08/18 00:08:08;;;;;;;4.43;2.95;;;;;;;24.54;85.90;99397.28;339016;28;4494;-82
2023/08/18 00:08:20;;;;;;;3.95;2.80;;;;;;;24.53;85.84;99401.75;338841;28;4515;-82
2023/08/18 00:08:32;;;;;;;4.72;3.08;;;;;;;24.54;86.00;99395.44;335324;28;18433;-83
2023/08/18 00:08:44;;;;;;;4.65;2.97;;;;;;;24.55;85.97;99398.94;338837;28;5268;-81
2023/08/18 00:08:56;;;;;;;4.32;3.05;;;;;;;24.53;85.85;99396.44;338992;28;5312;-83
2023/08/18 00:09:08;;;;;;;4.93;3.15;;;;;;;24.51;86.06;99398.41;336176;28;17811;-82
2023/08/18 00:09:20;;;;;;;4.83;3.13;;;;;;;24.53;85.85;99401.75;338484;28;4584;-83
2023/08/18 00:09:32;;;;;;;5.13;3.08;;;;;;;24.54;85.89;99398.09;336211;28;18303;-82
2023/08/18 00:09:44;;;;;;;4.55;2.80;;;;;;;24.55;85.87;99401.59;338787;28;4476;-82
2023/08/18 00:09:56;;;;;;;4.22;2.80;;;;;;;24.54;85.90;99398.09;337121;28;6146;-82
2023/08/18 00:10:08;;;;;;;4.20;2.85;;;;;;;24.55;85.77;99398.94;334470;28;18650;-82
2023/08/18 00:10:21;;;;;;;4.25;2.67;;;;;;;24.55;85.68;99397.13;337910;28;5506;-83
2023/08/18 00:10:33;;;;;;;3.97;2.75;;;;;;;24.54;85.92;99391.97;336847;28;6618;-82
2023/08/18 00:10:46;;;;;;;4.28;3.17;;;;;;;24.54;85.72;99397.28;336829;28;17289;-83
2023/08/18 00:10:59;;;;;;;4.53;3.30;;;;;;;24.53;85.80;99391.13;336429;28;4601;-82
2023/08/18 00:11:11;;;;;;;3.80;2.72;;;;;;;24.53;85.89;99396.44;338799;28;5607;-83
2023/08/18 00:11:23;;;;;;;3.80;2.60;;;;;;;24.54;85.90;99395.44;336203;28;11541;-83
2023/08/18 00:11:35;;;;;;;4.65;2.83;;;;;;;24.54;85.89;99392.78;337284;28;4629;-82
2023/08/18 00:11:47;;;;;;;5.47;3.10;;;;;;;24.54;85.64;99387.47;336872;28;4515;-82
2023/08/18 00:11:59;;;;;;;4.68;3.10;;;;;;;24.54;85.64;99397.28;334032;28;17864;-82
2023/08/18 00:12:11;;;;;;;3.33;2.67;;;;;;;24.54;85.67;99403.41;338982;28;4603;-82
2023/08/18 00:12:23;;;;;;;3.08;2.53;;;;;;;24.53;85.81;99393.78;335750;28;19851;-83
2023/08/18 00:12:35;;;;;;;3.08;2.47;;;;;;;24.53;85.77;99396.44;338702;28;5300;-82
2023/08/18 00:12:47;;;;;;;3.97;2.70;;;;;;;24.54;85.66;99394.63;338750;28;4507;-82
2023/08/18 00:12:59;;;;;;;4.18;2.72;;;;;;;24.52;85.84;99384.97;336005;28;18021;-82
2023/08/18 00:13:11;;;;;;;3.50;2.63;;;;;;;24.53;85.71;99393.78;338887;28;4719;-82
2023/08/18 00:13:23;;;;;;;3.40;2.63;;;;;;;24.52;85.67;99384.97;338816;28;5385;-83
2023/08/18 00:13:35;;;;;;;3.95;2.67;;;;;;;24.54;85.48;99386.66;335932;28;18368;-82
2023/08/18 00:13:47;;;;;;;6.00;2.70;;;;;;;24.54;85.85;99395.44;339586;28;4663;-82
2023/08/18 00:13:59;;;;;;;6.40;2.80;;;;;;;24.54;85.89;99384.81;337502;28;16888;-83
2023/08/18 00:14:11;;;;;;;5.90;2.70;;;;;;;24.54;85.70;99386.66;340336;28;4735;-83
2023/08/18 00:14:23;;;;;;;4.10;2.60;;;;;;;24.55;85.70;99389.16;340166;28;4635;-83
2023/08/18 00:14:35;;;;;;;4.80;2.70;;;;;;;24.55;85.61;99389.16;337396;28;19050;-82
2023/08/18 00:14:47;;;;;;;4.63;2.85;;;;;;;24.54;85.55;99392.78;340206;28;4526;-82
2023/08/18 00:14:59;;;;;;;4.97;2.92;;;;;;;24.54;85.84;99387.47;339678;28;5131;-82
2023/08/18 00:15:11;;;;;;;4.78;2.88;;;;;;;24.54;85.66;99387.47;336208;28;17608;-82
2023/08/18 00:15:23;;;;;;;3.58;2.83;;;;;;;24.54;85.70;99387.47;338826;28;4983;-82
2023/08/18 00:15:35;;;;;;;3.65;2.80;;;;;;;24.55;85.74;99389.16;336503;28;18143;-82
2023/08/18 00:15:47;;;;;;;3.40;2.50;;;;;;;24.56;85.82;99382.84;340347;28;4605;-82
2023/08/18 00:16:00;;;;;;;3.58;2.67;;;;;;;24.56;85.77;99379.38;337806;28;4687;-82
2023/08/18 00:16:12;;;;;;;4.10;2.90;;;;;;;24.57;85.49;99384.53;338793;28;4560;-82
2023/08/18 00:16:24;;;;;;;4.30;2.90;;;;;;;24.57;85.83;99386.34;338795;28;8029;-82
2023/08/18 00:16:36;;;;;;;4.13;2.70;;;;;;;24.58;85.89;99386.19;336416;28;18330;-82
2023/08/18 00:16:49;;;;;;;4.25;2.80;;;;;;;24.57;85.83;99387.19;338815;28;4564;-82
2023/08/18 00:17:01;;;;;;;5.32;2.63;;;;;;;24.57;85.53;99386.34;336135;28;18059;-82
2023/08/18 00:17:12;;;;;;;5.95;2.78;;;;;;;24.58;85.49;99383.53;338652;28;5287;-82
2023/08/18 00:17:24;;;;;;;6.60;2.92;;;;;;;24.57;85.72;99381.03;336329;28;5668;-82
2023/08/18 00:17:37;;;;;;;4.45;2.90;;;;;;;24.58;85.76;99378.22;338952;28;4549;-83
2023/08/18 00:17:49;;;;;;;4.28;3.10;;;;;;;24.59;85.75;99385.22;338693;28;4502;-82
2023/08/18 00:18:01;;;;;;;4.13;3.03;;;;;;;24.59;85.67;99390.53;337605;28;18079;-82
2023/08/18 00:18:13;;;;;;;3.85;2.88;;;;;;;24.59;85.54;99390.53;335244;28;18304;-83
2023/08/18 00:18:25;;;;;;;3.25;2.67;;;;;;;24.60;85.67;99386.06;338578;28;4793;-83
2023/08/18 00:18:37;;;;;;;3.33;2.63;;;;;;;24.60;85.46;99386.06;335060;28;17968;-82
2023/08/18 00:18:49;;;;;;;3.63;2.65;;;;;;;24.57;85.55;99392.50;337371;28;4606;-82
2023/08/18 00:19:01;;;;;;;4.15;2.85;;;;;;;24.57;85.74;99387.19;335291;28;18205;-82
2023/08/18 00:19:13;;;;;;;4.20;2.88;;;;;;;24.56;85.56;99385.50;337652;28;5750;-82
2023/08/18 00:19:25;;;;;;;3.40;2.72;;;;;;;24.55;85.23;99383.84;338069;28;6974;-82
2023/08/18 00:19:37;;;;;;;3.75;2.95;;;;;;;24.57;85.51;99381.03;333616;28;5302;-83
2023/08/18 00:19:49;;;;;;;4.32;3.20;;;;;;;24.54;85.90;99384.81;334003;28;17854;-82
2023/08/18 00:20:02;;;;;;;4.45;3.22;;;;;;;24.54;85.52;99387.47;338520;28;5440;-83
2023/08/18 00:20:14;;;;;;;4.15;3.05;;;;;;;24.54;85.63;99384.00;334708;28;18448;-82
2023/08/18 00:20:26;;;;;;;3.60;2.70;;;;;;;24.55;85.39;99383.84;336841;28;5037;-83
2023/08/18 00:20:38;;;;;;;3.47;2.67;;;;;;;24.55;85.43;99383.84;336158;28;17483;-82
2023/08/18 00:20:50;;;;;;;2.83;2.50;;;;;;;24.55;85.19;99381.19;338627;28;4702;-82
2023/08/18 00:21:02;;;;;;;2.65;2.42;;;;;;;24.55;85.37;99383.84;336343;28;18513;-82
2023/08/18 00:21:15;;;;;;;3.45;2.60;;;;;;;24.56;85.56;99384.69;335143;28;4757;-83
2023/08/18 00:21:27;;;;;;;3.75;2.85;;;;;;;24.55;85.38;99386.50;340197;28;4656;-82
2023/08/18 00:21:40;;;;;;;3.85;3.00;;;;;;;24.55;85.21;99381.19;334564;28;18601;-82
2023/08/18 00:21:52;;;;;;;3.55;2.70;;;;;;;24.55;85.48;99388.31;338822;28;5143;-83
2023/08/18 00:22:04;;;;;;;4.15;2.75;;;;;;;24.55;85.38;99378.53;335672;28;18158;-82
2023/08/18 00:22:16;;;;;;;4.35;2.83;;;;;;;24.53;85.22;99385.81;340003;28;5533;-83
2023/08/18 00:22:29;;;;;;;3.70;2.63;;;;;;;24.52;85.21;99378.81;337523;28;12772;-82
2023/08/18 00:22:41;;;;;;;4.05;2.80;;;;;;;24.52;85.39;99384.13;340076;28;4710;-82
2023/08/18 00:22:53;;;;;;;3.65;2.75;;;;;;;24.51;85.50;99383.31;335175;28;5285;-83
2023/08/18 00:23:05;;;;;;;3.35;2.72;;;;;;;24.52;85.36;99379.66;337031;28;17782;-82
2023/08/18 00:23:17;;;;;;;3.38;2.85;;;;;;;24.52;85.24;99389.44;339441;28;5532;-82
2023/08/18 00:23:29;;;;;;;3.42;2.80;;;;;;;24.54;85.44;99386.66;337277;28;16002;-83
2023/08/18 00:23:41;;;;;;;3.10;2.60;;;;;;;24.54;85.20;99384.00;338796;28;4677;-82
2023/08/18 00:23:53;;;;;;;3.35;2.63;;;;;;;24.54;85.23;99381.34;338890;28;4537;-82
2023/08/18 00:24:06;;;;;;;4.45;2.90;;;;;;;24.52;85.21;99384.97;336112;28;16547;-82
2023/08/18 00:24:18;;;;;;;4.28;2.85;;;;;;;24.52;85.13;99379.66;338413;28;5424;-83
2023/08/18 00:24:30;;;;;;;3.90;2.60;;;;;;;24.53;84.99;99385.81;334535;28;11679;-82
2023/08/18 00:24:42;;;;;;;5.13;2.67;;;;;;;24.51;84.90;99393.94;337759;28;4691;-82
2023/08/18 00:24:57;;;;;;;5.35;2.60;;;;;;;24.50;84.80;99386.09;337749;28;4640;-82
2023/08/18 00:25:09;;;;;;;4.03;2.67;;;;;;;24.51;85.01;99388.63;325553;28;18086;-83
2023/08/18 00:25:21;;;;;;;5.30;2.80;;;;;;;24.51;84.94;99390.44;335610;28;17698;-82
2023/08/18 00:25:33;;;;;;;5.20;2.80;;;;;;;24.51;84.74;99393.09;338706;28;5384;-82
2023/08/18 00:25:45;;;;;;;5.57;2.80;;;;;;;24.49;84.81;99390.53;336283;28;15818;-82
2023/08/18 00:25:57;;;;;;;5.28;2.67;;;;;;;24.50;84.70;99396.72;337843;28;17036;-82
2023/08/18 00:26:10;;;;;;;5.43;2.70;;;;;;;24.49;84.76;99393.19;340328;28;4924;-82
2023/08/18 00:26:22;;;;;;;4.40;2.50;;;;;;;24.49;84.51;99384.41;337369;28;17909;-82
2023/08/18 00:26:34;;;;;;;3.58;2.50;;;;;;;24.48;84.54;99394.16;339975;28;4907;-82
2023/08/18 00:26:46;;;;;;;2.88;2.58;;;;;;;24.49;84.57;99401.19;337188;28;18568;-82
2023/08/18 00:26:58;;;;;;;3.22;2.40;;;;;;;24.48;84.10;99393.34;338782;28;4479;-82
2023/08/18 00:27:10;;;;;;;3.80;2.60;;;;;;;24.48;84.44;99394.16;338770;28;16357;-82
2023/08/18 00:27:22;;;;;;;3.38;2.53;;;;;;;24.47;84.42;99391.69;330790;28;17970;-83
2023/08/18 00:27:36;;;;;;;3.03;2.42;;;;;;;24.50;84.31;99391.41;338679;28;4549;-82
2023/08/18 00:27:48;;;;;;;3.25;2.50;;;;;;;24.50;84.22;99388.75;336079;28;18411;-82
2023/08/18 00:28:00;;;;;;;3.17;2.60;;;;;;;24.50;84.13;99396.72;338302;28;4482;-82
2023/08/18 00:28:12;;;;;;;2.83;2.40;;;;;;;24.50;84.13;99386.91;336313;28;16606;-82
2023/08/18 00:28:24;;;;;;;3.08;2.30;;;;;;;24.50;83.84;99392.25;338889;28;5145;-83
2023/08/18 00:28:36;;;;;;;3.47;2.35;;;;;;;24.50;83.64;99392.25;336300;28;11526;-82
2023/08/18 00:28:48;;;;;;;4.07;2.50;;;;;;;24.52;83.69;99395.59;333908;28;4611;-82
2023/08/18 00:29:00;;;;;;;4.03;2.47;;;;;;;24.52;83.67;99386.78;338641;28;4521;-83
2023/08/18 00:29:12;;;;;;;4.30;2.53;;;;;;;24.53;83.86;99396.44;334897;28;18847;-82
2023/08/18 00:29:24;;;;;;;4.47;2.50;;;;;;;24.51;83.56;99393.94;339206;28;4536;-82
2023/08/18 00:29:36;;;;;;;4.03;2.40;;;;;;;24.52;83.36;99395.59;336066;28;12114;-82
2023/08/18 00:29:49;;;;;;;4.57;2.40;;;;;;;24.52;83.55;99390.28;338841;28;4662;-82
2023/08/18 00:30:01;;;;;;;4.32;2.40;;;;;;;24.54;83.26;99395.44;338388;28;12713;-82
2023/08/18 00:30:13;;;;;;;3.10;2.40;;;;;;;24.53;83.49;99391.13;337500;28;18331;-82
2023/08/18 00:30:25;;;;;;;3.00;2.40;;;;;;;24.54;83.09;99387.47;333992;28;4778;-82
2023/08/18 00:30:37;;;;;;;2.65;2.20;;;;;;;24.53;82.72;99391.13;336278;28;11414;-82
2023/08/18 00:30:49;;;;;;;4.43;2.15;;;;;;;24.54;82.94;99397.28;339035;28;5503;-82
2023/08/18 00:31:02;;;;;;;4.80;2.30;;;;;;;24.52;82.60;99394.75;338673;28;5552;-82
2023/08/18 00:31:14;;;;;;;4.85;2.50;;;;;;;24.53;82.56;99396.44;336047;28;18336;-82
2023/08/18 00:31:26;;;;;;;3.30;2.40;;;;;;;24.54;82.33;99398.09;337326;28;4529;-82
2023/08/18 00:31:38;;;;;;;2.72;2.25;;;;;;;24.52;82.21;99389.44;330517;28;16940;-82
2023/08/18 00:31:50;;;;;;;2.33;2.10;;;;;;;24.52;82.29;99394.75;338623;28;4493;-82
2023/08/18 00:32:02;;;;;;;2.45;2.10;;;;;;;24.52;81.53;99395.59;333558;28;16393;-82
2023/08/18 00:32:14;;;;;;;2.60;2.10;;;;;;;24.51;81.83;99398.41;336494;28;4716;-82
2023/08/18 00:32:26;;;;;;;3.13;2.22;;;;;;;24.51;82.00;99398.41;335385;28;4740;-82
2023/08/18 00:32:39;;;;;;;2.70;2.10;;;;;;;24.49;81.77;99395.03;337496;28;4643;-82
2023/08/18 00:32:51;;;;;;;2.47;2.25;;;;;;;24.49;81.62;99395.03;337644;28;4521;-82
2023/08/18 00:33:04;;;;;;;2.45;2.22;;;;;;;24.50;81.73;99392.25;334400;28;19079;-82
2023/08/18 00:33:16;;;;;;;2.85;2.20;;;;;;;24.50;81.43;99394.06;332900;28;4984;-82
2023/08/18 00:33:28;;;;;;;3.65;2.30;;;;;;;24.49;81.14;99395.03;335874;28;16635;-82
2023/08/18 00:33:40;;;;;;;3.60;2.30;;;;;;;24.50;81.12;99388.75;338151;28;4587;-82
2023/08/18 00:33:52;;;;;;;3.50;2.20;;;;;;;24.47;80.75;99397.00;337427;28;4677;-82
2023/08/18 00:34:04;;;;;;;3.58;2.10;;;;;;;24.47;80.73;99397.81;334644;28;18332;-82
2023/08/18 00:34:16;;;;;;;3.55;2.15;;;;;;;24.48;80.82;99393.34;339064;28;4534;-82
2023/08/18 00:34:28;;;;;;;3.47;2.22;;;;;;;24.47;80.37;99397.00;333827;28;19077;-82
2023/08/18 00:34:40;;;;;;;2.58;2.10;;;;;;;24.48;80.54;99396.00;336079;28;4776;-82
2023/08/18 00:34:52;;;;;;;2.53;2.22;;;;;;;24.48;80.65;99398.66;336077;28;4563;-82
2023/08/18 00:35:05;;;;;;;2.95;2.30;;;;;;;24.47;80.50;99394.34;333998;28;5265;-83
2023/08/18 00:35:17;;;;;;;3.22;2.28;;;;;;;24.46;80.26;99395.31;336189;28;4650;-82
2023/08/18 00:35:29;;;;;;;2.57;1.97;;;;;;;24.46;80.08;99400.63;334993;28;18393;-82
2023/08/18 00:35:41;;;;;;;3.15;1.80;;;;;;;24.47;80.19;99397.00;337410;28;5420;-82
2023/08/18 00:35:53;;;;;;;3.63;2.00;;;;;;;24.46;79.95;99396.13;337641;28;4508;-82
2023/08/18 00:36:05;;;;;;;3.42;2.03;;;;;;;24.47;79.75;99397.00;334633;28;19073;-82
2023/08/18 00:36:17;;;;;;;2.65;2.17;;;;;;;24.48;79.96;99399.47;337013;28;5047;-82
2023/08/18 00:36:30;;;;;;;3.13;2.13;;;;;;;24.48;79.89;99393.34;333089;28;4656;-83
2023/08/18 00:36:42;;;;;;;2.97;2.08;;;;;;;24.49;79.61;99397.69;336188;28;19477;-82
2023/08/18 00:36:55;;;;;;;2.53;2.00;;;;;;;24.47;79.12;99394.34;338941;28;4603;-82
2023/08/18 00:37:07;;;;;;;2.55;1.92;;;;;;;24.46;79.22;99401.44;335193;28;18517;-82
2023/08/18 00:37:19;;;;;;;3.42;2.13;;;;;;;24.46;78.90;99397.97;338116;28;4657;-82
2023/08/18 00:37:31;;;;;;;3.72;2.33;;;;;;;24.46;79.23;99398.78;336410;28;18061;-82
2023/08/18 00:37:44;;;;;;;3.00;2.28;;;;;;;24.45;78.54;99397.13;338990;28;5515;-82
2023/08/18 00:37:56;;;;;;;2.42;2.00;;;;;;;24.46;78.96;99400.63;336413;28;4562;-82
2023/08/18 00:38:08;;;;;;;3.13;2.00;;;;;;;24.44;78.23;99397.28;337729;28;4608;-82
2023/08/18 00:38:20;;;;;;;3.40;2.20;;;;;;;24.42;77.75;99394.75;337865;28;4846;-82
2023/08/18 00:38:32;;;;;;;2.65;2.13;;;;;;;24.42;77.82;99404.56;337234;28;17401;-82
2023/08/18 00:38:44;;;;;;;2.60;2.08;;;;;;;24.41;78.16;99392.25;338767;28;4513;-82
2023/08/18 00:38:58;;;;;;;2.58;2.17;;;;;;;24.41;78.20;99400.22;336166;28;18355;-82
2023/08/18 00:39:10;;;;;;;3.13;2.40;;;;;;;24.41;78.11;99402.88;339110;28;4533;-82
2023/08/18 00:39:22;;;;;;;3.20;2.33;;;;;;;24.40;77.79;99398.53;331156;28;18131;-82
2023/08/18 00:39:34;;;;;;;3.20;2.15;;;;;;;24.42;77.82;99399.25;339853;28;4473;-82
2023/08/18 00:39:46;;;;;;;2.42;1.95;;;;;;;24.43;77.55;99395.63;332748;28;18025;-82
2023/08/18 00:39:58;;;;;;;2.13;1.75;;;;;;;24.44;77.55;99405.25;339993;28;4500;-82
2023/08/18 00:40:11;;;;;;;1.88;1.70;;;;;;;24.42;76.84;99393.94;339938;28;4541;-82
2023/08/18 00:40:23;;;;;;;2.88;2.00;;;;;;;24.42;76.93;99401.91;337712;28;17706;-82
2023/08/18 00:40:35;;;;;;;3.83;2.28;;;;;;;24.41;77.01;99397.56;340400;28;5386;-82
2023/08/18 00:40:47;;;;;;;3.55;2.25;;;;;;;24.40;77.45;99401.19;337827;28;17775;-82
2023/08/18 00:40:59;;;;;;;3.08;2.15;;;;;;;24.39;77.41;99402.16;335497;28;4577;-82
2023/08/18 00:41:11;;;;;;;2.80;1.95;;;;;;;24.33;77.08;99396.47;339044;28;5444;-82
2023/08/18 00:41:24;;;;;;;3.20;2.03;;;;;;;24.35;77.42;99399.00;336206;28;17251;-82
2023/08/18 00:41:36;;;;;;;3.85;2.20;;;;;;;24.35;77.20;99404.31;337468;28;4560;-82
2023/08/18 00:41:48;;;;;;;3.80;2.10;;;;;;;24.35;77.13;99404.31;336530;28;18184;-82
2023/08/18 00:42:00;;;;;;;3.60;2.00;;;;;;;24.36;77.23;99405.13;337449;28;4615;-82
2023/08/18 00:42:12;;;;;;;2.55;1.90;;;;;;;24.34;77.39;99392.00;335088;28;18113;-82
2023/08/18 00:42:24;;;;;;;2.80;2.13;;;;;;;24.35;77.32;99403.44;337295;28;4710;-82
2023/08/18 00:42:36;;;;;;;2.72;2.10;;;;;;;24.35;77.46;99403.44;337528;28;4658;-82
2023/08/18 00:42:49;;;;;;;2.67;2.10;;;;;;;24.34;77.58;99397.31;335231;28;17814;-83
2023/08/18 00:43:01;;;;;;;3.03;2.22;;;;;;;24.36;77.56;99410.44;337542;28;4566;-83
2023/08/18 00:43:13;;;;;;;3.00;2.03;;;;;;;24.33;77.74;99401.78;336354;28;17662;-82
2023/08/18 00:43:25;;;;;;;2.78;1.98;;;;;;;24.34;78.41;99402.63;337514;28;5808;-82
2023/08/18 00:43:37;;;;;;;3.95;2.00;;;;;;;24.32;78.23;99409.88;337914;28;9559;-82
2023/08/18 00:43:48;;;;;;;4.20;2.10;;;;;;;24.33;78.03;99404.44;334443;28;18257;-82
2023/08/18 00:44:01;;;;;;;2.95;1.95;;;;;;;24.33;77.99;99404.44;333895;28;4715;-83
2023/08/18 00:44:13;;;;;;;2.72;1.98;;;;;;;24.32;78.06;99402.75;336691;28;12148;-82
2023/08/18 00:44:25;;;;;;;3.22;2.05;;;;;;;24.34;78.33;99407.94;340348;28;4492;-82
2023/08/18 00:44:37;;;;;;;4.00;2.17;;;;;;;24.33;78.71;99407.09;339069;28;4716;-83
2023/08/18 00:44:49;;;;;;;4.32;2.42;;;;;;;24.32;78.31;99410.72;335233;28;18720;-82
2023/08/18 00:45:01;;;;;;;3.75;2.30;;;;;;;24.32;78.43;99410.72;337641;28;4523;-82
2023/08/18 00:45:13;;;;;;;2.90;2.28;;;;;;;24.29;78.39;99405.72;334933;28;9122;-83
2023/08/18 00:45:25;;;;;;;3.33;2.38;;;;;;;24.30;78.61;99401.22;335578;28;12541;-82
2023/08/18 00:45:38;;;;;;;4.25;2.30;;;;;;;24.30;78.68;99407.38;330565;28;5360;-82
2023/08/18 00:45:53;;;;;;;4.00;2.13;;;;;;;24.18;78.98;99403.22;336204;28;18756;-82
2023/08/18 00:46:05;;;;;;;2.53;2.15;;;;;;;24.17;79.34;99406.88;334676;28;18009;-83
2023/08/18 00:46:19;;;;;;;2.53;2.30;;;;;;;24.17;79.32;99404.22;334508;28;11557;-82
2023/08/18 00:46:31;;;;;;;2.40;2.13;;;;;;;24.19;79.29;99409.38;337715;28;4689;-82
2023/08/18 00:46:44;;;;;;;2.65;2.17;;;;;;;24.17;79.10;99401.56;338109;28;5195;-82
2023/08/18 00:46:56;;;;;;;4.10;2.25;;;;;;;24.19;79.44;99404.91;331699;28;18143;-82
2023/08/18 00:47:09;;;;;;;4.55;2.28;;;;;;;24.20;78.80;99406.56;335431;28;5291;-82
2023/08/18 00:47:21;;;;;;;4.60;2.25;;;;;;;24.20;79.13;99403.91;337555;28;4506;-82
2023/08/18 00:47:34;;;;;;;4.03;2.17;;;;;;;24.19;79.08;99401.41;337628;28;5089;-82
2023/08/18 00:47:47;;;;;;;3.53;2.10;;;;;;;24.19;78.66;99404.06;330544;28;18071;-82
2023/08/18 00:47:59;;;;;;;3.40;2.05;;;;;;;24.19;78.74;99407.56;335719;28;16269;-82
2023/08/18 00:48:11;;;;;;;2.55;2.05;;;;;;;24.19;78.95;99401.41;337917;28;4513;-82
2023/08/18 00:48:24;;;;;;;2.75;2.00;;;;;;;24.16;78.78;99404.34;338969;28;4730;-82
2023/08/18 00:48:39;;;;;;;3.22;2.10;;;;;;;24.13;78.77;99405.47;336311;28;17606;-82
2023/08/18 00:48:51;;;;;;;3.55;2.42;;;;;;;24.12;78.79;99403.78;335871;28;17760;-82
2023/08/18 00:49:07;;;;;;;3.13;2.45;;;;;;;24.15;78.97;99400.00;337987;28;4502;-82
2023/08/18 00:49:20;;;;;;;3.10;2.20;;;;;;;24.16;78.96;99399.84;336167;28;18041;-82
2023/08/18 00:49:32;;;;;;;3.20;2.00;;;;;;;24.18;78.82;99408.53;339063;28;4564;-82
2023/08/18 00:49:44;;;;;;;2.75;1.98;;;;;;;24.19;78.69;99399.59;339201;28;5476;-82
2023/08/18 00:49:57;;;;;;;2.58;1.98;;;;;;;24.20;78.51;99395.94;336409;28;18505;-82
2023/08/18 00:50:11;;;;;;;2.47;1.90;;;;;;;24.20;78.75;99397.75;333302;28;4618;-82
2023/08/18 00:50:24;;;;;;;2.95;2.00;;;;;;;24.20;78.37;99397.75;337756;28;17286;-82
2023/08/18 00:50:36;;;;;;;3.67;2.03;;;;;;;24.22;78.33;99399.28;336406;28;18416;-82
2023/08/18 00:50:49;;;;;;;3.42;1.90;;;;;;;24.22;78.55;99404.59;339329;28;5667;-82
2023/08/18 00:51:01;;;;;;;2.45;1.88;;;;;;;24.20;78.45;99403.91;336330;28;16904;-82
2023/08/18 00:51:13;;;;;;;3.60;1.90;;;;;;;24.20;78.24;99398.59;337577;28;5373;-82
2023/08/18 00:51:29;;;;;;;4.22;1.90;;;;;;;24.19;78.28;99402.25;334729;28;17372;-82
2023/08/18 00:51:42;;;;;;;3.58;1.90;;;;;;;24.20;78.27;99406.56;334948;28;17667;-82
2023/08/18 00:51:56;;;;;;;3.45;2.00;;;;;;;24.19;78.56;99396.09;337719;28;4651;-82
2023/08/18 00:52:08;;;;;;;2.42;2.03;;;;;;;24.18;78.32;99400.56;335070;28;18115;-83
2023/08/18 00:52:20;;;;;;;2.75;2.00;;;;;;;24.17;77.99;99400.72;337626;28;4478;-82
2023/08/18 00:52:33;;;;;;;3.30;2.00;;;;;;;24.18;77.83;99397.06;335169;28;17987;-82
2023/08/18 00:52:56;;;;;;;3.72;2.05;;;;;;;24.18;77.87;99405.03;331191;28;10891;-82
2023/08/18 00:53:08;;;;;;;3.33;2.25;;;;;;;24.17;77.94;99398.91;335904;28;17650;-82
2023/08/18 00:53:20;;;;;;;3.45;2.20;;;;;;;24.15;78.06;99392.03;339080;28;4501;-82
2023/08/18 00:53:33;;;;;;;3.08;2.20;;;;;;;24.17;77.93;99396.25;336181;28;18073;-82
2023/08/18 00:53:45;;;;;;;2.63;2.05;;;;;;;24.17;77.67;99396.25;337889;28;4502;-82
2023/08/18 00:53:58;;;;;;;2.22;1.83;;;;;;;24.18;77.56;99395.25;334713;28;18225;-82
2023/08/18 00:54:12;;;;;;;2.40;1.90;;;;;;;24.16;76.87;99393.72;337807;28;4649;-82
2023/08/18 00:54:26;;;;;;;2.47;2.05;;;;;;;24.17;77.30;99398.06;334733;28;18960;-82
2023/08/18 00:54:39;;;;;;;2.08;1.85;;;;;;;24.17;77.64;99396.25;335342;28;17972;-82
2023/08/18 00:54:52;;;;;;;2.30;1.80;;;;;;;24.18;77.03;99392.59;337921;28;4563;-82
2023/08/18 00:55:06;;;;;;;2.40;1.83;;;;;;;24.19;77.35;99394.28;333522;28;17833;-82
2023/08/18 00:55:18;;;;;;;2.85;1.90;;;;;;;24.17;77.06;99401.56;333984;28;17955;-82
2023/08/18 00:55:30;;;;;;;3.03;2.00;;;;;;;24.17;77.22;99396.25;337671;28;5413;-82
2023/08/18 00:55:43;;;;;;;3.22;2.03;;;;;;;24.16;77.33;99388.41;335148;28;18168;-82
2023/08/18 00:55:55;;;;;;;2.70;2.00;;;;;;;24.17;77.41;99388.28;334290;28;4516;-82
2023/08/18 00:56:11;;;;;;;2.65;2.00;;;;;;;24.15;77.21;99390.25;337684;28;5800;-82
2023/08/18 00:56:23;;;;;;;2.55;1.90;;;;;;;24.15;77.11;99392.91;335429;28;17843;-82
2023/08/18 00:56:35;;;;;;;2.67;1.88;;;;;;;24.15;77.04;99387.59;337486;28;5518;-82
2023/08/18 00:56:48;;;;;;;2.67;1.90;;;;;;;24.14;76.76;99391.19;337668;28;5477;-82
2023/08/18 00:57:00;;;;;;;2.90;2.00;;;;;;;24.13;76.83;99389.53;334885;28;18941;-82
2023/08/18 00:57:12;;;;;;;2.90;2.00;;;;;;;24.12;76.92;99387.84;336452;28;4553;-82
2023/08/18 00:57:25;;;;;;;2.78;1.88;;;;;;;24.13;77.00;99389.53;335547;28;17699;-82
2023/08/18 00:57:38;;;;;;;3.03;1.93;;;;;;;24.13;76.85;99389.53;337867;28;5007;-82
2023/08/18 00:57:51;;;;;;;2.90;1.98;;;;;;;24.11;76.93;99386.19;335024;28;19712;-82
2023/08/18 00:58:03;;;;;;;2.53;1.98;;;;;;;24.11;76.88;99391.50;335297;28;4545;-82
2023/08/18 00:58:15;;;;;;;2.55;1.85;;;;;;;24.09;76.85;99388.16;338160;28;4981;-82
2023/08/18 00:58:27;;;;;;;2.53;1.75;;;;;;;24.10;77.06;99393.31;339922;28;5001;-82
2023/08/18 00:58:39;;;;;;;2.80;1.80;;;;;;;24.11;77.23;99392.34;336272;28;18289;-82
2023/08/18 00:58:53;;;;;;;2.55;2.00;;;;;;;24.10;76.97;99388.00;339103;28;5014;-82
2023/08/18 00:59:06;;;;;;;2.72;2.10;;;;;;;24.09;76.94;99388.97;334874;28;19224;-82